In Rescue
 
Open Full Screen Window  High Contrast Mode
September 19, 2019 3:55 PM CDT
Weather Information
Wind Direction
  ---
Wind Speed
  00 kt (0 mph)
Wind Gust
  00 kt (0 mph)
Altimeter
30.01 in
Visibility
7 SM
Temperature
26° C
79° F
Dewpoint
13° C
55° F
Humidity
45%
1hr Rain Fall
00.00 in.
24hr Rain Fall
00.00 in.
Sky Condition
Clear
VFR

METAR KDTL 192055Z AUTO 00000KT 7SM CLR 26/13 A3001 RMK AO2

FAA Disclaimer: The data displayed is for advisory purposes only and is not to be used for flight planning or operations.